sensor_id;sensor_type;location;lat;lon;timestamp;temperature;humidity
1958;DHT22;979;51.076;13.748;2024-01-30T05:41:10;5.30;61.40
1958;DHT22;979;51.076;13.748;2024-01-30T05:43:39;5.30;61.80
1958;DHT22;979;51.076;13.748;2024-01-30T05:46:09;5.50;61.90
1958;DHT22;979;51.076;13.748;2024-01-30T05:48:37;5.50;61.90
1958;DHT22;979;51.076;13.748;2024-01-30T05:51:07;5.50;61.90
1958;DHT22;979;51.076;13.748;2024-01-30T05:53:35;5.70;62.00
1958;DHT22;979;51.076;13.748;2024-01-30T05:56:04;5.70;62.00
1958;DHT22;979;51.076;13.748;2024-01-30T05:58:34;5.50;61.80
1958;DHT22;979;51.076;13.748;2024-01-30T06:01:07;5.50;62.10
1958;DHT22;979;51.076;13.748;2024-01-30T06:03:36;5.50;62.10
1958;DHT22;979;51.076;13.748;2024-01-30T06:06:06;5.50;62.20
1958;DHT22;979;51.076;13.748;2024-01-30T06:08:34;5.50;62.20
1958;DHT22;979;51.076;13.748;2024-01-30T06:11:03;5.70;62.40
1958;DHT22;979;51.076;13.748;2024-01-30T06:14:00;5.50;62.20
1958;DHT22;979;51.076;13.748;2024-01-30T06:16:29;5.50;62.30
1958;DHT22;979;51.076;13.748;2024-01-30T06:18:57;5.60;62.50
1958;DHT22;979;51.076;13.748;2024-01-30T06:21:26;5.60;62.40
1958;DHT22;979;51.076;13.748;2024-01-30T06:23:54;5.50;62.30
1958;DHT22;979;51.076;13.748;2024-01-30T06:26:23;5.80;62.70
1958;DHT22;979;51.076;13.748;2024-01-30T06:28:51;5.50;62.40
1958;DHT22;979;51.076;13.748;2024-01-30T06:31:20;5.80;62.80
1958;DHT22;979;51.076;13.748;2024-01-30T06:33:49;5.60;62.60
1958;DHT22;979;51.076;13.748;2024-01-30T06:36:18;5.50;62.40
1958;DHT22;979;51.076;13.748;2024-01-30T06:38:46;5.50;62.50
1958;DHT22;979;51.076;13.748;2024-01-30T06:41:15;5.50;62.50
1958;DHT22;979;51.076;13.748;2024-01-30T06:43:43;5.50;62.50
1958;DHT22;979;51.076;13.748;2024-01-30T06:46:12;5.50;62.50
1958;DHT22;979;51.076;13.748;2024-01-30T06:48:42;5.50;62.50
1958;DHT22;979;51.076;13.748;2024-01-30T06:51:11;5.50;62.60
1958;DHT22;979;51.076;13.748;2024-01-30T07:07:30;5.40;62.50
1958;DHT22;979;51.076;13.748;2024-01-30T07:09:59;5.60;63.80
1958;DHT22;979;51.076;13.748;2024-01-30T07:16:06;5.40;62.60
1958;DHT22;979;51.076;13.748;2024-01-30T08:56:20;7.70;61.20
1958;DHT22;979;51.076;13.748;2024-01-30T08:58:49;8.00;61.60
1958;DHT22;979;51.076;13.748;2024-01-30T09:01:21;7.90;61.40
1958;DHT22;979;51.076;13.748;2024-01-30T09:03:50;8.20;61.40
1958;DHT22;979;51.076;13.748;2024-01-30T09:06:18;8.00;60.90
1958;DHT22;979;51.076;13.748;2024-01-30T09:08:47;8.00;60.90
1958;DHT22;979;51.076;13.748;2024-01-30T09:11:16;8.00;60.70
1958;DHT22;979;51.076;13.748;2024-01-30T09:13:46;8.00;60.80
1958;DHT22;979;51.076;13.748;2024-01-30T09:16:17;8.10;60.70
1958;DHT22;979;51.076;13.748;2024-01-30T09:18:48;8.10;60.50
1958;DHT22;979;51.076;13.748;2024-01-30T09:21:18;8.30;60.60
1958;DHT22;979;51.076;13.748;2024-01-30T09:23:48;8.20;60.40
1958;DHT22;979;51.076;13.748;2024-01-30T09:26:17;8.40;60.40
1958;DHT22;979;51.076;13.748;2024-01-30T09:28:47;8.20;60.20
1958;DHT22;979;51.076;13.748;2024-01-30T09:31:16;8.40;60.40
1958;DHT22;979;51.076;13.748;2024-01-30T09:33:48;8.30;60.10
1958;DHT22;979;51.076;13.748;2024-01-30T09:36:18;8.30;60.00
1958;DHT22;979;51.076;13.748;2024-01-30T09:38:47;8.20;59.80
1958;DHT22;979;51.076;13.748;2024-01-30T09:41:17;8.20;59.70
1958;DHT22;979;51.076;13.748;2024-01-30T09:43:49;8.20;59.70
1958;DHT22;979;51.076;13.748;2024-01-30T09:46:21;8.20;59.80
1958;DHT22;979;51.076;13.748;2024-01-30T09:48:55;8.40;60.20
1958;DHT22;979;51.076;13.748;2024-01-30T09:51:35;8.30;59.70
1958;DHT22;979;51.076;13.748;2024-01-30T09:54:19;8.20;59.50
1958;DHT22;979;51.076;13.748;2024-01-30T09:56:48;8.20;59.50
1958;DHT22;979;51.076;13.748;2024-01-30T09:59:22;8.30;59.60
1958;DHT22;979;51.076;13.748;2024-01-30T10:01:51;8.20;59.40
1958;DHT22;979;51.076;13.748;2024-01-30T10:04:32;8.30;59.40
1958;DHT22;979;51.076;13.748;2024-01-30T10:07:02;8.30;59.30
1958;DHT22;979;51.076;13.748;2024-01-30T10:09:33;8.30;59.30
1958;DHT22;979;51.076;13.748;2024-01-30T10:12:04;8.30;59.30
1958;DHT22;979;51.076;13.748;2024-01-30T10:14:39;8.30;59.20
1958;DHT22;979;51.076;13.748;2024-01-30T10:17:09;8.30;59.40
1958;DHT22;979;51.076;13.748;2024-01-30T10:19:53;8.30;59.10
1958;DHT22;979;51.076;13.748;2024-01-30T10:22:22;8.40;59.40
1958;DHT22;979;51.076;13.748;2024-01-30T10:24:51;8.40;59.20
1958;DHT22;979;51.076;13.748;2024-01-30T10:27:25;8.50;59.40
1958;DHT22;979;51.076;13.748;2024-01-30T10:29:55;8.50;59.00
1958;DHT22;979;51.076;13.748;2024-01-30T10:32:24;8.60;59.10
1958;DHT22;979;51.076;13.748;2024-01-30T10:34:54;8.60;58.90
1958;DHT22;979;51.076;13.748;2024-01-30T10:37:25;8.60;59.10
1958;DHT22;979;51.076;13.748;2024-01-30T10:40:02;8.70;59.10
1958;DHT22;979;51.076;13.748;2024-01-30T10:42:36;8.70;58.90
1958;DHT22;979;51.076;13.748;2024-01-30T10:45:08;8.80;59.10
1958;DHT22;979;51.076;13.748;2024-01-30T10:47:40;8.80;58.80
1958;DHT22;979;51.076;13.748;2024-01-30T10:50:09;8.80;58.80
1958;DHT22;979;51.076;13.748;2024-01-30T10:52:41;8.80;58.80
1958;DHT22;979;51.076;13.748;2024-01-30T10:55:11;8.90;58.60
1958;DHT22;979;51.076;13.748;2024-01-30T10:57:40;8.90;58.70
1958;DHT22;979;51.076;13.748;2024-01-30T11:00:11;8.90;58.50
1958;DHT22;979;51.076;13.748;2024-01-30T11:02:44;9.00;58.30
1958;DHT22;979;51.076;13.748;2024-01-30T11:05:23;9.00;59.00
1958;DHT22;979;51.076;13.748;2024-01-30T11:08:11;9.10;58.70
1958;DHT22;979;51.076;13.748;2024-01-30T11:10:47;9.20;58.30
1958;DHT22;979;51.076;13.748;2024-01-30T11:13:19;9.20;58.30
1958;DHT22;979;51.076;13.748;2024-01-30T11:16:33;9.30;58.80
1958;DHT22;979;51.076;13.748;2024-01-30T11:19:02;9.50;58.20
1958;DHT22;979;51.076;13.748;2024-01-30T11:21:33;9.50;58.50
1958;DHT22;979;51.076;13.748;2024-01-30T11:24:14;9.50;58.10
1958;DHT22;979;51.076;13.748;2024-01-30T11:26:47;9.50;58.10
1958;DHT22;979;51.076;13.748;2024-01-30T11:29:24;9.50;57.70
1958;DHT22;979;51.076;13.748;2024-01-30T11:35:21;9.40;57.50
1958;DHT22;979;51.076;13.748;2024-01-30T11:37:51;9.40;57.70
1958;DHT22;979;51.076;13.748;2024-01-30T11:40:21;9.30;57.70
1958;DHT22;979;51.076;13.748;2024-01-30T11:42:55;9.20;57.70
1958;DHT22;979;51.076;13.748;2024-01-30T11:45:36;9.30;57.60
1958;DHT22;979;51.076;13.748;2024-01-30T11:48:21;9.30;57.70
1958;DHT22;979;51.076;13.748;2024-01-30T11:50:58;9.40;57.80
1958;DHT22;979;51.076;13.748;2024-01-30T11:53:32;9.40;57.70
1958;DHT22;979;51.076;13.748;2024-01-30T11:56:08;9.40;57.60
1958;DHT22;979;51.076;13.748;2024-01-30T11:59:26;9.50;57.50
1958;DHT22;979;51.076;13.748;2024-01-30T12:01:58;9.60;57.70
1958;DHT22;979;51.076;13.748;2024-01-30T12:04:43;9.60;57.60
1958;DHT22;979;51.076;13.748;2024-01-30T12:07:29;9.60;57.10
1958;DHT22;979;51.076;13.748;2024-01-30T12:09:59;9.60;57.00
1958;DHT22;979;51.076;13.748;2024-01-30T12:12:44;9.80;57.40
1958;DHT22;979;51.076;13.748;2024-01-30T12:15:14;9.80;57.10
1958;DHT22;979;51.076;13.748;2024-01-30T12:17:45;9.80;57.10
1958;DHT22;979;51.076;13.748;2024-01-30T12:20:28;9.90;57.20
1958;DHT22;979;51.076;13.748;2024-01-30T12:23:02;10.10;56.20
1958;DHT22;979;51.076;13.748;2024-01-30T12:25:33;10.10;56.00
1958;DHT22;979;51.076;13.748;2024-01-30T12:28:10;10.10;56.00
1958;DHT22;979;51.076;13.748;2024-01-30T12:31:09;10.10;55.90
1958;DHT22;979;51.076;13.748;2024-01-30T12:36:31;10.20;55.40
1958;DHT22;979;51.076;13.748;2024-01-30T12:39:06;10.40;55.90
1958;DHT22;979;51.076;13.748;2024-01-30T12:41:43;10.50;55.70
1958;DHT22;979;51.076;13.748;2024-01-30T12:44:14;10.60;55.60
1958;DHT22;979;51.076;13.748;2024-01-30T12:46:42;10.60;56.00
1958;DHT22;979;51.076;13.748;2024-01-30T12:49:14;10.80;55.50
1958;DHT22;979;51.076;13.748;2024-01-30T12:51:45;10.90;55.40
1958;DHT22;979;51.076;13.748;2024-01-30T12:54:16;11.10;55.30
1958;DHT22;979;51.076;13.748;2024-01-30T12:56:45;11.20;55.20
1958;DHT22;979;51.076;13.748;2024-01-30T12:59:14;11.30;54.80
1958;DHT22;979;51.076;13.748;2024-01-30T13:01:45;11.20;54.40
1958;DHT22;979;51.076;13.748;2024-01-30T13:04:19;11.00;54.30
1958;DHT22;979;51.076;13.748;2024-01-30T13:07:02;10.90;54.10
1958;DHT22;979;51.076;13.748;2024-01-30T13:19:09;10.70;54.60
1958;DHT22;979;51.076;13.748;2024-01-30T13:21:37;11.30;55.20
1958;DHT22;979;51.076;13.748;2024-01-30T13:24:06;11.80;55.10
1958;DHT22;979;51.076;13.748;2024-01-30T13:26:35;12.10;54.70
1958;DHT22;979;51.076;13.748;2024-01-30T13:29:04;12.60;54.00
1958;DHT22;979;51.076;13.748;2024-01-30T13:31:32;12.80;53.90
1958;DHT22;979;51.076;13.748;2024-01-30T13:34:01;13.00;53.60
1958;DHT22;979;51.076;13.748;2024-01-30T13:36:36;13.30;53.50
1958;DHT22;979;51.076;13.748;2024-01-30T13:39:04;13.50;53.00
1958;DHT22;979;51.076;13.748;2024-01-30T13:41:36;13.40;52.40
1958;DHT22;979;51.076;13.748;2024-01-30T13:44:04;13.70;52.30
1958;DHT22;979;51.076;13.748;2024-01-30T13:46:35;13.70;52.20
1958;DHT22;979;51.076;13.748;2024-01-30T13:49:06;13.40;51.80
1958;DHT22;979;51.076;13.748;2024-01-30T13:51:36;13.00;51.60
1958;DHT22;979;51.076;13.748;2024-01-30T13:54:04;12.60;51.60
1958;DHT22;979;51.076;13.748;2024-01-30T13:56:33;12.20;51.70
1958;DHT22;979;51.076;13.748;2024-01-30T13:59:02;11.80;51.80
1958;DHT22;979;51.076;13.748;2024-01-30T14:01:32;11.40;51.90
1958;DHT22;979;51.076;13.748;2024-01-30T14:04:04;11.10;52.10
1958;DHT22;979;51.076;13.748;2024-01-30T14:06:50;10.80;52.10
1958;DHT22;979;51.076;13.748;2024-01-30T14:09:30;10.50;52.30
1958;DHT22;979;51.076;13.748;2024-01-30T14:11:59;10.30;52.70
1958;DHT22;979;51.076;13.748;2024-01-30T14:14:28;10.10;52.70
1958;DHT22;979;51.076;13.748;2024-01-30T14:16:57;9.90;53.60
1958;DHT22;979;51.076;13.748;2024-01-30T14:19:25;9.70;53.90
1958;DHT22;979;51.076;13.748;2024-01-30T14:21:55;9.70;54.10
1958;DHT22;979;51.076;13.748;2024-01-30T14:24:24;9.50;54.10
1958;DHT22;979;51.076;13.748;2024-01-30T14:26:52;9.40;54.40
1958;DHT22;979;51.076;13.748;2024-01-30T14:29:21;9.40;54.50
1958;DHT22;979;51.076;13.748;2024-01-30T14:31:49;9.30;54.60
1958;DHT22;979;51.076;13.748;2024-01-30T14:34:18;9.20;54.80
1958;DHT22;979;51.076;13.748;2024-01-30T14:36:47;9.10;54.80
1958;DHT22;979;51.076;13.748;2024-01-30T14:39:17;9.30;55.20
1958;DHT22;979;51.076;13.748;2024-01-30T14:41:46;9.00;55.10
1958;DHT22;979;51.076;13.748;2024-01-30T14:44:17;8.80;55.10
1958;DHT22;979;51.076;13.748;2024-01-30T14:46:45;8.80;55.30
1958;DHT22;979;51.076;13.748;2024-01-30T14:49:13;8.70;55.40
1958;DHT22;979;51.076;13.748;2024-01-30T14:51:42;8.80;55.60
1958;DHT22;979;51.076;13.748;2024-01-30T14:54:11;8.50;55.50
1958;DHT22;979;51.076;13.748;2024-01-30T14:56:41;8.50;55.60
1958;DHT22;979;51.076;13.748;2024-01-30T14:59:09;8.40;55.70
1958;DHT22;979;51.076;13.748;2024-01-30T15:01:38;8.30;55.90
1958;DHT22;979;51.076;13.748;2024-01-30T15:04:10;8.30;55.90
1958;DHT22;979;51.076;13.748;2024-01-30T15:06:41;8.20;55.90
1958;DHT22;979;51.076;13.748;2024-01-30T15:09:12;8.10;55.90
1958;DHT22;979;51.076;13.748;2024-01-30T15:11:44;8.00;56.00
1958;DHT22;979;51.076;13.748;2024-01-30T15:14:13;8.10;56.30
1958;DHT22;979;51.076;13.748;2024-01-30T15:16:41;7.80;56.30
1958;DHT22;979;51.076;13.748;2024-01-30T15:19:10;7.70;56.40
1958;DHT22;979;51.076;13.748;2024-01-30T16:44:47;6.20;59.00
1958;DHT22;979;51.076;13.748;2024-01-30T16:47:30;6.20;59.10
